sensor_id;sensor_type;location;lat;lon;timestamp;P1;durP1;ratioP1;P2;durP2;ratioP2
1759;SDS011;877;46.266;20.062;2023-02-15T00:01:26;58.30;;;30.55;;
1759;SDS011;877;46.266;20.062;2023-02-15T00:03:52;53.75;;;29.40;;
1759;SDS011;877;46.266;20.062;2023-02-15T00:06:19;58.67;;;30.90;;
1759;SDS011;877;46.266;20.062;2023-02-15T00:08:45;62.90;;;32.38;;
1759;SDS011;877;46.266;20.062;2023-02-15T00:11:13;54.35;;;30.08;;
1759;SDS011;877;46.266;20.062;2023-02-15T00:13:39;58.78;;;30.33;;
1759;SDS011;877;46.266;20.062;2023-02-15T00:16:10;58.13;;;31.80;;
1759;SDS011;877;46.266;20.062;2023-02-15T00:18:37;61.80;;;32.03;;
1759;SDS011;877;46.266;20.062;2023-02-15T00:21:04;54.85;;;30.00;;
1759;SDS011;877;46.266;20.062;2023-02-15T00:23:32;57.50;;;31.23;;
1759;SDS011;877;46.266;20.062;2023-02-15T00:26:04;56.13;;;30.13;;
1759;SDS011;877;46.266;20.062;2023-02-15T00:28:32;65.38;;;32.05;;
1759;SDS011;877;46.266;20.062;2023-02-15T00:31:05;56.13;;;30.10;;
1759;SDS011;877;46.266;20.062;2023-02-15T00:33:32;58.03;;;30.45;;
1759;SDS011;877;46.266;20.062;2023-02-15T00:35:58;59.17;;;29.52;;
1759;SDS011;877;46.266;20.062;2023-02-15T00:38:26;62.63;;;30.95;;
1759;SDS011;877;46.266;20.062;2023-02-15T00:40:54;63.00;;;33.47;;
1759;SDS011;877;46.266;20.062;2023-02-15T00:43:20;56.75;;;32.15;;
1759;SDS011;877;46.266;20.062;2023-02-15T00:45:47;67.57;;;32.78;;
1759;SDS011;877;46.266;20.062;2023-02-15T00:48:14;61.35;;;32.08;;
1759;SDS011;877;46.266;20.062;2023-02-15T00:50:40;58.05;;;29.95;;
1759;SDS011;877;46.266;20.062;2023-02-15T00:53:06;54.20;;;31.33;;
1759;SDS011;877;46.266;20.062;2023-02-15T00:55:32;60.75;;;29.23;;
1759;SDS011;877;46.266;20.062;2023-02-15T00:57:59;55.35;;;29.77;;
1759;SDS011;877;46.266;20.062;2023-02-15T01:00:28;58.88;;;30.77;;
1759;SDS011;877;46.266;20.062;2023-02-15T01:02:54;56.92;;;30.00;;
1759;SDS011;877;46.266;20.062;2023-02-15T01:05:20;61.63;;;31.52;;
1759;SDS011;877;46.266;20.062;2023-02-15T01:07:46;53.80;;;28.85;;
1759;SDS011;877;46.266;20.062;2023-02-15T01:10:13;58.85;;;31.27;;
1759;SDS011;877;46.266;20.062;2023-02-15T01:12:40;59.10;;;30.65;;
1759;SDS011;877;46.266;20.062;2023-02-15T01:15:06;61.65;;;30.73;;
1759;SDS011;877;46.266;20.062;2023-02-15T01:17:32;58.65;;;32.67;;
1759;SDS011;877;46.266;20.062;2023-02-15T01:19:58;56.03;;;29.80;;
1759;SDS011;877;46.266;20.062;2023-02-15T01:22:25;63.63;;;30.63;;
1759;SDS011;877;46.266;20.062;2023-02-15T01:24:51;62.47;;;31.88;;
1759;SDS011;877;46.266;20.062;2023-02-15T01:27:18;49.35;;;28.80;;
1759;SDS011;877;46.266;20.062;2023-02-15T01:29:44;68.80;;;33.45;;
1759;SDS011;877;46.266;20.062;2023-02-15T01:32:12;67.65;;;32.97;;
1759;SDS011;877;46.266;20.062;2023-02-15T01:34:38;69.63;;;34.70;;
1759;SDS011;877;46.266;20.062;2023-02-15T01:37:06;70.93;;;35.53;;
1759;SDS011;877;46.266;20.062;2023-02-15T01:39:32;72.68;;;35.75;;
1759;SDS011;877;46.266;20.062;2023-02-15T01:41:58;73.95;;;34.47;;
1759;SDS011;877;46.266;20.062;2023-02-15T01:47:13;70.50;;;36.72;;
1759;SDS011;877;46.266;20.062;2023-02-15T01:49:41;73.57;;;37.72;;
1759;SDS011;877;46.266;20.062;2023-02-15T01:52:09;70.32;;;38.58;;
1759;SDS011;877;46.266;20.062;2023-02-15T01:54:36;79.45;;;38.55;;
1759;SDS011;877;46.266;20.062;2023-02-15T01:57:05;72.63;;;40.65;;
1759;SDS011;877;46.266;20.062;2023-02-15T01:59:35;87.03;;;43.30;;
1759;SDS011;877;46.266;20.062;2023-02-15T02:02:03;72.82;;;38.95;;
1759;SDS011;877;46.266;20.062;2023-02-15T02:04:33;71.75;;;37.95;;
1759;SDS011;877;46.266;20.062;2023-02-15T02:07:01;74.75;;;36.45;;
1759;SDS011;877;46.266;20.062;2023-02-15T02:09:28;79.13;;;35.22;;
1759;SDS011;877;46.266;20.062;2023-02-15T02:11:54;69.45;;;34.72;;
1759;SDS011;877;46.266;20.062;2023-02-15T02:14:22;63.55;;;33.58;;
1759;SDS011;877;46.266;20.062;2023-02-15T02:25:04;67.60;;;33.70;;
1759;SDS011;877;46.266;20.062;2023-02-15T02:40:36;60.00;;;33.15;;
1759;SDS011;877;46.266;20.062;2023-02-15T02:43:15;64.60;;;31.58;;
1759;SDS011;877;46.266;20.062;2023-02-15T02:45:44;63.72;;;33.47;;
1759;SDS011;877;46.266;20.062;2023-02-15T02:48:21;67.50;;;30.05;;
1759;SDS011;877;46.266;20.062;2023-02-15T02:50:48;64.40;;;31.58;;
1759;SDS011;877;46.266;20.062;2023-02-15T02:53:15;63.13;;;31.55;;
1759;SDS011;877;46.266;20.062;2023-02-15T02:55:55;66.00;;;31.88;;
1759;SDS011;877;46.266;20.062;2023-02-15T02:58:44;61.30;;;31.75;;
1759;SDS011;877;46.266;20.062;2023-02-15T03:03:40;62.35;;;32.17;;
1759;SDS011;877;46.266;20.062;2023-02-15T03:06:11;61.72;;;31.75;;
1759;SDS011;877;46.266;20.062;2023-02-15T03:08:42;60.25;;;31.58;;
1759;SDS011;877;46.266;20.062;2023-02-15T03:11:09;62.75;;;30.75;;
1759;SDS011;877;46.266;20.062;2023-02-15T03:13:37;63.92;;;30.90;;
1759;SDS011;877;46.266;20.062;2023-02-15T03:16:03;60.10;;;30.25;;
1759;SDS011;877;46.266;20.062;2023-02-15T03:18:51;61.38;;;31.15;;
1759;SDS011;877;46.266;20.062;2023-02-15T03:21:33;58.67;;;29.52;;
1759;SDS011;877;46.266;20.062;2023-02-15T03:24:06;64.18;;;30.17;;
1759;SDS011;877;46.266;20.062;2023-02-15T03:26:34;64.18;;;30.85;;
1759;SDS011;877;46.266;20.062;2023-02-15T03:29:01;59.10;;;29.55;;
1759;SDS011;877;46.266;20.062;2023-02-15T03:31:30;65.05;;;31.35;;
1759;SDS011;877;46.266;20.062;2023-02-15T03:33:58;64.45;;;31.30;;
1759;SDS011;877;46.266;20.062;2023-02-15T03:44:29;60.00;;;26.98;;
1759;SDS011;877;46.266;20.062;2023-02-15T03:49:27;54.75;;;30.73;;
1759;SDS011;877;46.266;20.062;2023-02-15T03:51:55;58.13;;;29.80;;
1759;SDS011;877;46.266;20.062;2023-02-15T03:54:24;59.58;;;28.38;;
1759;SDS011;877;46.266;20.062;2023-02-15T03:57:11;68.55;;;31.98;;
1759;SDS011;877;46.266;20.062;2023-02-15T03:59:59;60.97;;;30.35;;
1759;SDS011;877;46.266;20.062;2023-02-15T04:05:29;64.68;;;32.22;;
1759;SDS011;877;46.266;20.062;2023-02-15T04:07:55;59.55;;;30.90;;
1759;SDS011;877;46.266;20.062;2023-02-15T04:10:22;69.65;;;32.25;;
1759;SDS011;877;46.266;20.062;2023-02-15T04:13:09;63.22;;;33.70;;
1759;SDS011;877;46.266;20.062;2023-02-15T04:15:35;66.63;;;34.17;;
1759;SDS011;877;46.266;20.062;2023-02-15T04:18:21;72.50;;;34.67;;
1759;SDS011;877;46.266;20.062;2023-02-15T04:21:05;64.68;;;33.78;;
1759;SDS011;877;46.266;20.062;2023-02-15T04:23:51;71.35;;;32.20;;
1759;SDS011;877;46.266;20.062;2023-02-15T04:26:37;67.30;;;34.50;;
1759;SDS011;877;46.266;20.062;2023-02-15T04:29:03;72.30;;;33.45;;
1759;SDS011;877;46.266;20.062;2023-02-15T04:31:30;66.55;;;32.42;;
1759;SDS011;877;46.266;20.062;2023-02-15T04:33:56;63.90;;;32.38;;
1759;SDS011;877;46.266;20.062;2023-02-15T04:36:24;68.15;;;32.70;;
1759;SDS011;877;46.266;20.062;2023-02-15T04:38:51;76.53;;;36.75;;
1759;SDS011;877;46.266;20.062;2023-02-15T04:41:18;70.80;;;36.78;;
1759;SDS011;877;46.266;20.062;2023-02-15T04:43:46;74.40;;;34.72;;
1759;SDS011;877;46.266;20.062;2023-02-15T04:46:12;79.03;;;35.42;;
1759;SDS011;877;46.266;20.062;2023-02-15T04:48:39;73.30;;;36.33;;
1759;SDS011;877;46.266;20.062;2023-02-15T04:51:06;73.20;;;35.40;;
1759;SDS011;877;46.266;20.062;2023-02-15T04:53:32;72.50;;;34.90;;
1759;SDS011;877;46.266;20.062;2023-02-15T04:55:58;74.97;;;36.08;;
1759;SDS011;877;46.266;20.062;2023-02-15T04:58:24;87.38;;;38.58;;
1759;SDS011;877;46.266;20.062;2023-02-15T05:00:57;72.47;;;35.20;;
1759;SDS011;877;46.266;20.062;2023-02-15T05:03:23;76.85;;;35.33;;
1759;SDS011;877;46.266;20.062;2023-02-15T05:05:53;68.47;;;34.38;;
1759;SDS011;877;46.266;20.062;2023-02-15T05:08:20;63.58;;;30.70;;
1759;SDS011;877;46.266;20.062;2023-02-15T05:10:49;82.50;;;39.30;;
1759;SDS011;877;46.266;20.062;2023-02-15T05:13:16;90.93;;;40.97;;
1759;SDS011;877;46.266;20.062;2023-02-15T05:15:52;81.80;;;39.35;;
1759;SDS011;877;46.266;20.062;2023-02-15T05:18:21;78.22;;;38.85;;
1759;SDS011;877;46.266;20.062;2023-02-15T05:20:49;72.72;;;36.40;;
1759;SDS011;877;46.266;20.062;2023-02-15T05:23:17;74.18;;;37.65;;
1759;SDS011;877;46.266;20.062;2023-02-15T05:25:47;87.55;;;42.65;;
1759;SDS011;877;46.266;20.062;2023-02-15T05:28:33;78.13;;;37.03;;
1759;SDS011;877;46.266;20.062;2023-02-15T05:33:29;69.28;;;32.55;;
1759;SDS011;877;46.266;20.062;2023-02-15T05:35:57;75.40;;;33.72;;
1759;SDS011;877;46.266;20.062;2023-02-15T05:38:23;73.22;;;33.30;;
1759;SDS011;877;46.266;20.062;2023-02-15T05:40:52;74.35;;;35.28;;
1759;SDS011;877;46.266;20.062;2023-02-15T05:43:18;73.88;;;36.13;;
1759;SDS011;877;46.266;20.062;2023-02-15T05:45:45;74.60;;;35.97;;
1759;SDS011;877;46.266;20.062;2023-02-15T05:48:12;74.68;;;34.65;;
1759;SDS011;877;46.266;20.062;2023-02-15T05:50:38;75.18;;;36.95;;
1759;SDS011;877;46.266;20.062;2023-02-15T05:53:05;69.55;;;33.75;;
1759;SDS011;877;46.266;20.062;2023-02-15T05:55:32;78.65;;;35.90;;
1759;SDS011;877;46.266;20.062;2023-02-15T05:57:59;85.57;;;37.97;;
1759;SDS011;877;46.266;20.062;2023-02-15T06:00:25;73.97;;;33.53;;
1759;SDS011;877;46.266;20.062;2023-02-15T06:02:51;78.30;;;33.90;;
1759;SDS011;877;46.266;20.062;2023-02-15T06:05:17;82.30;;;34.85;;
1759;SDS011;877;46.266;20.062;2023-02-15T06:07:43;82.50;;;38.05;;
1759;SDS011;877;46.266;20.062;2023-02-15T06:10:10;66.70;;;33.72;;
1759;SDS011;877;46.266;20.062;2023-02-15T06:12:37;68.93;;;36.47;;
1759;SDS011;877;46.266;20.062;2023-02-15T06:15:04;69.18;;;34.47;;
1759;SDS011;877;46.266;20.062;2023-02-15T06:20:36;70.72;;;36.03;;
1759;SDS011;877;46.266;20.062;2023-02-15T06:23:10;74.65;;;38.08;;
1759;SDS011;877;46.266;20.062;2023-02-15T06:25:36;72.35;;;35.10;;
1759;SDS011;877;46.266;20.062;2023-02-15T06:28:07;73.25;;;38.42;;
1759;SDS011;877;46.266;20.062;2023-02-15T06:30:42;83.55;;;40.28;;
1759;SDS011;877;46.266;20.062;2023-02-15T06:33:19;69.63;;;38.13;;
1759;SDS011;877;46.266;20.062;2023-02-15T06:35:45;77.15;;;37.78;;
1759;SDS011;877;46.266;20.062;2023-02-15T06:38:13;81.60;;;39.55;;
1759;SDS011;877;46.266;20.062;2023-02-15T06:40:39;76.00;;;36.33;;
1759;SDS011;877;46.266;20.062;2023-02-15T06:43:15;71.45;;;37.50;;
1759;SDS011;877;46.266;20.062;2023-02-15T06:45:41;76.35;;;36.80;;
1759;SDS011;877;46.266;20.062;2023-02-15T06:48:07;71.45;;;37.88;;
1759;SDS011;877;46.266;20.062;2023-02-15T06:50:35;81.35;;;35.85;;
1759;SDS011;877;46.266;20.062;2023-02-15T06:53:01;76.32;;;39.70;;
1759;SDS011;877;46.266;20.062;2023-02-15T06:55:30;63.85;;;33.13;;
1759;SDS011;877;46.266;20.062;2023-02-15T06:57:57;84.82;;;36.58;;
1759;SDS011;877;46.266;20.062;2023-02-15T07:00:23;72.03;;;32.55;;
1759;SDS011;877;46.266;20.062;2023-02-15T07:02:56;67.70;;;33.33;;
1759;SDS011;877;46.266;20.062;2023-02-15T07:05:25;72.25;;;33.38;;
1759;SDS011;877;46.266;20.062;2023-02-15T07:07:56;69.75;;;35.90;;
1759;SDS011;877;46.266;20.062;2023-02-15T07:13:00;75.20;;;36.20;;
1759;SDS011;877;46.266;20.062;2023-02-15T07:15:27;75.47;;;39.72;;
1759;SDS011;877;46.266;20.062;2023-02-15T07:17:54;75.60;;;36.47;;
1759;SDS011;877;46.266;20.062;2023-02-15T07:20:23;86.88;;;37.80;;
1759;SDS011;877;46.266;20.062;2023-02-15T07:22:51;73.82;;;37.25;;
1759;SDS011;877;46.266;20.062;2023-02-15T07:25:19;75.40;;;35.97;;
1759;SDS011;877;46.266;20.062;2023-02-15T07:27:45;72.57;;;35.60;;
1759;SDS011;877;46.266;20.062;2023-02-15T07:30:12;72.53;;;33.08;;
1759;SDS011;877;46.266;20.062;2023-02-15T07:32:43;77.15;;;33.92;;
1759;SDS011;877;46.266;20.062;2023-02-15T07:35:29;73.00;;;37.22;;
1759;SDS011;877;46.266;20.062;2023-02-15T07:37:59;74.85;;;37.28;;
1759;SDS011;877;46.266;20.062;2023-02-15T07:40:26;73.63;;;36.05;;
1759;SDS011;877;46.266;20.062;2023-02-15T07:42:52;71.97;;;35.90;;
1759;SDS011;877;46.266;20.062;2023-02-15T07:45:19;75.38;;;33.55;;
1759;SDS011;877;46.266;20.062;2023-02-15T07:47:46;72.88;;;36.05;;
1759;SDS011;877;46.266;20.062;2023-02-15T07:52:41;70.45;;;34.17;;
1759;SDS011;877;46.266;20.062;2023-02-15T07:55:07;74.13;;;37.97;;
1759;SDS011;877;46.266;20.062;2023-02-15T07:57:35;76.60;;;36.85;;
1759;SDS011;877;46.266;20.062;2023-02-15T08:00:04;69.07;;;34.92;;
1759;SDS011;877;46.266;20.062;2023-02-15T08:05:03;74.32;;;32.30;;
1759;SDS011;877;46.266;20.062;2023-02-15T08:07:36;78.20;;;38.97;;
1759;SDS011;877;46.266;20.062;2023-02-15T08:10:02;80.10;;;37.65;;
1759;SDS011;877;46.266;20.062;2023-02-15T08:12:30;67.85;;;33.97;;
1759;SDS011;877;46.266;20.062;2023-02-15T08:14:56;71.15;;;38.13;;
1759;SDS011;877;46.266;20.062;2023-02-15T08:17:24;76.82;;;38.05;;
1759;SDS011;877;46.266;20.062;2023-02-15T08:19:50;78.38;;;36.53;;
1759;SDS011;877;46.266;20.062;2023-02-15T08:22:17;71.70;;;36.17;;
1759;SDS011;877;46.266;20.062;2023-02-15T08:24:47;76.32;;;38.45;;
1759;SDS011;877;46.266;20.062;2023-02-15T08:27:13;72.20;;;34.92;;
1759;SDS011;877;46.266;20.062;2023-02-15T08:29:40;87.50;;;38.30;;
1759;SDS011;877;46.266;20.062;2023-02-15T08:32:08;87.82;;;36.85;;
1759;SDS011;877;46.266;20.062;2023-02-15T08:34:37;77.47;;;36.65;;
1759;SDS011;877;46.266;20.062;2023-02-15T08:37:05;76.20;;;39.10;;
1759;SDS011;877;46.266;20.062;2023-02-15T08:39:31;80.10;;;38.17;;
1759;SDS011;877;46.266;20.062;2023-02-15T08:41:57;86.28;;;43.42;;
1759;SDS011;877;46.266;20.062;2023-02-15T08:44:33;80.53;;;42.85;;
1759;SDS011;877;46.266;20.062;2023-02-15T08:47:00;88.03;;;44.60;;
1759;SDS011;877;46.266;20.062;2023-02-15T08:49:29;84.57;;;42.50;;
1759;SDS011;877;46.266;20.062;2023-02-15T08:51:55;87.22;;;43.08;;
1759;SDS011;877;46.266;20.062;2023-02-15T08:54:22;88.53;;;42.47;;
1759;SDS011;877;46.266;20.062;2023-02-15T08:56:48;90.10;;;43.00;;
1759;SDS011;877;46.266;20.062;2023-02-15T08:59:17;91.72;;;43.78;;
1759;SDS011;877;46.266;20.062;2023-02-15T09:01:45;80.57;;;39.40;;
1759;SDS011;877;46.266;20.062;2023-02-15T09:04:12;88.03;;;41.25;;
1759;SDS011;877;46.266;20.062;2023-02-15T09:06:40;80.38;;;39.17;;
1759;SDS011;877;46.266;20.062;2023-02-15T09:09:09;76.50;;;38.95;;
1759;SDS011;877;46.266;20.062;2023-02-15T09:11:41;78.57;;;44.25;;
1759;SDS011;877;46.266;20.062;2023-02-15T09:14:13;100.80;;;45.33;;
1759;SDS011;877;46.266;20.062;2023-02-15T09:16:41;74.53;;;39.50;;
1759;SDS011;877;46.266;20.062;2023-02-15T09:19:13;78.47;;;38.22;;
1759;SDS011;877;46.266;20.062;2023-02-15T09:21:40;72.78;;;36.58;;
1759;SDS011;877;46.266;20.062;2023-02-15T09:24:09;72.93;;;36.38;;
1759;SDS011;877;46.266;20.062;2023-02-15T09:29:07;81.22;;;38.72;;
1759;SDS011;877;46.266;20.062;2023-02-15T09:31:37;81.10;;;40.20;;
1759;SDS011;877;46.266;20.062;2023-02-15T09:34:04;72.78;;;36.83;;
1759;SDS011;877;46.266;20.062;2023-02-15T09:36:35;71.00;;;35.15;;
1759;SDS011;877;46.266;20.062;2023-02-15T09:39:20;82.80;;;37.33;;
1759;SDS011;877;46.266;20.062;2023-02-15T10:08:31;64.63;;;33.03;;
1759;SDS011;877;46.266;20.062;2023-02-15T10:11:15;74.68;;;35.10;;
1759;SDS011;877;46.266;20.062;2023-02-15T10:16:56;80.63;;;38.72;;
1759;SDS011;877;46.266;20.062;2023-02-15T10:25:06;60.90;;;32.25;;
1759;SDS011;877;46.266;20.062;2023-02-15T10:27:38;66.65;;;34.65;;
1759;SDS011;877;46.266;20.062;2023-02-15T10:33:03;53.83;;;26.55;;
1759;SDS011;877;46.266;20.062;2023-02-15T10:35:42;60.50;;;31.23;;
1759;SDS011;877;46.266;20.062;2023-02-15T10:38:47;57.63;;;29.30;;
1759;SDS011;877;46.266;20.062;2023-02-15T10:43:39;49.92;;;26.70;;
1759;SDS011;877;46.266;20.062;2023-02-15T10:51:08;52.65;;;25.75;;
1759;SDS011;877;46.266;20.062;2023-02-15T10:53:45;56.50;;;27.95;;
1759;SDS011;877;46.266;20.062;2023-02-15T10:56:17;50.30;;;26.13;;
1759;SDS011;877;46.266;20.062;2023-02-15T11:06:27;48.13;;;26.08;;
1759;SDS011;877;46.266;20.062;2023-02-15T11:08:59;49.30;;;25.10;;
1759;SDS011;877;46.266;20.062;2023-02-15T11:11:32;48.53;;;25.63;;
1759;SDS011;877;46.266;20.062;2023-02-15T11:14:05;50.20;;;28.55;;
1759;SDS011;877;46.266;20.062;2023-02-15T11:16:39;47.95;;;26.45;;
1759;SDS011;877;46.266;20.062;2023-02-15T11:19:24;54.85;;;26.30;;
1759;SDS011;877;46.266;20.062;2023-02-15T11:22:01;55.20;;;24.65;;
1759;SDS011;877;46.266;20.062;2023-02-15T11:24:29;50.95;;;26.58;;
1759;SDS011;877;46.266;20.062;2023-02-15T11:29:36;56.92;;;26.90;;
1759;SDS011;877;46.266;20.062;2023-02-15T11:34:57;44.38;;;25.35;;
1759;SDS011;877;46.266;20.062;2023-02-15T11:40:22;44.33;;;22.67;;
1759;SDS011;877;46.266;20.062;2023-02-15T11:42:51;56.78;;;27.42;;
1759;SDS011;877;46.266;20.062;2023-02-15T11:45:21;42.33;;;23.60;;
1759;SDS011;877;46.266;20.062;2023-02-15T11:47:52;50.08;;;25.60;;
1759;SDS011;877;46.266;20.062;2023-02-15T11:50:27;43.30;;;21.38;;
1759;SDS011;877;46.266;20.062;2023-02-15T11:53:02;69.45;;;38.08;;
1759;SDS011;877;46.266;20.062;2023-02-15T11:55:31;44.60;;;24.55;;
1759;SDS011;877;46.266;20.062;2023-02-15T12:00:51;41.95;;;23.00;;
1759;SDS011;877;46.266;20.062;2023-02-15T12:03:21;40.25;;;20.52;;
1759;SDS011;877;46.266;20.062;2023-02-15T12:05:49;41.42;;;23.17;;
1759;SDS011;877;46.266;20.062;2023-02-15T12:08:17;42.40;;;23.85;;
1759;SDS011;877;46.266;20.062;2023-02-15T12:11:31;34.65;;;20.20;;
1759;SDS011;877;46.266;20.062;2023-02-15T12:13:33;36.35;;;19.48;;
1759;SDS011;877;46.266;20.062;2023-02-15T12:16:04;38.65;;;22.15;;
1759;SDS011;877;46.266;20.062;2023-02-15T12:21:02;42.08;;;22.20;;
1759;SDS011;877;46.266;20.062;2023-02-15T12:23:32;38.00;;;21.13;;
1759;SDS011;877;46.266;20.062;2023-02-15T12:25:59;48.28;;;24.30;;
1759;SDS011;877;46.266;20.062;2023-02-15T12:28:33;39.97;;;21.58;;
1759;SDS011;877;46.266;20.062;2023-02-15T12:31:03;37.80;;;21.05;;
1759;SDS011;877;46.266;20.062;2023-02-15T12:33:39;34.45;;;20.60;;
1759;SDS011;877;46.266;20.062;2023-02-15T12:36:22;39.35;;;21.80;;
1759;SDS011;877;46.266;20.062;2023-02-15T12:41:56;33.25;;;19.08;;
1759;SDS011;877;46.266;20.062;2023-02-15T12:44:35;40.63;;;19.42;;
1759;SDS011;877;46.266;20.062;2023-02-15T12:47:04;37.42;;;21.05;;
1759;SDS011;877;46.266;20.062;2023-02-15T12:49:35;33.40;;;20.48;;
1759;SDS011;877;46.266;20.062;2023-02-15T12:52:47;37.10;;;22.52;;
1759;SDS011;877;46.266;20.062;2023-02-15T12:55:18;39.80;;;21.15;;
1759;SDS011;877;46.266;20.062;2023-02-15T12:57:45;39.00;;;21.17;;
1759;SDS011;877;46.266;20.062;2023-02-15T13:02:43;35.22;;;19.55;;
1759;SDS011;877;46.266;20.062;2023-02-15T13:07:53;36.22;;;19.77;;
1759;SDS011;877;46.266;20.062;2023-02-15T13:10:24;33.22;;;17.88;;
1759;SDS011;877;46.266;20.062;2023-02-15T13:12:51;36.25;;;20.33;;
1759;SDS011;877;46.266;20.062;2023-02-15T13:15:23;33.60;;;18.25;;
1759;SDS011;877;46.266;20.062;2023-02-15T13:20:24;35.40;;;20.05;;
1759;SDS011;877;46.266;20.062;2023-02-15T13:22:58;28.63;;;17.25;;
1759;SDS011;877;46.266;20.062;2023-02-15T13:25:25;31.27;;;18.90;;
1759;SDS011;877;46.266;20.062;2023-02-15T13:28:02;35.30;;;19.73;;
1759;SDS011;877;46.266;20.062;2023-02-15T13:30:33;36.08;;;18.58;;
1759;SDS011;877;46.266;20.062;2023-02-15T13:33:14;34.28;;;18.98;;
1759;SDS011;877;46.266;20.062;2023-02-15T13:36:02;31.85;;;17.40;;
1759;SDS011;877;46.266;20.062;2023-02-15T13:41:17;30.45;;;18.50;;
1759;SDS011;877;46.266;20.062;2023-02-15T13:52:08;26.00;;;16.65;;
1759;SDS011;877;46.266;20.062;2023-02-15T14:26:49;29.30;;;18.48;;
1759;SDS011;877;46.266;20.062;2023-02-15T14:34:29;30.40;;;18.27;;
1759;SDS011;877;46.266;20.062;2023-02-15T14:36:56;32.30;;;20.20;;
1759;SDS011;877;46.266;20.062;2023-02-15T14:39:26;30.37;;;18.53;;
1759;SDS011;877;46.266;20.062;2023-02-15T14:47:50;35.30;;;19.17;;
1759;SDS011;877;46.266;20.062;2023-02-15T15:01:06;31.13;;;19.43;;
1759;SDS011;877;46.266;20.062;2023-02-15T15:03:51;30.47;;;19.10;;
1759;SDS011;877;46.266;20.062;2023-02-15T15:06:38;29.37;;;18.23;;
1759;SDS011;877;46.266;20.062;2023-02-15T15:09:22;35.20;;;21.43;;
1759;SDS011;877;46.266;20.062;2023-02-15T15:14:53;35.70;;;20.37;;
1759;SDS011;877;46.266;20.062;2023-02-15T15:20:13;29.17;;;18.30;;
1759;SDS011;877;46.266;20.062;2023-02-15T15:22:42;38.37;;;20.50;;
1759;SDS011;877;46.266;20.062;2023-02-15T15:25:12;35.70;;;19.70;;
1759;SDS011;877;46.266;20.062;2023-02-15T15:27:58;32.07;;;18.00;;
1759;SDS011;877;46.266;20.062;2023-02-15T15:41:02;32.53;;;19.77;;
1759;SDS011;877;46.266;20.062;2023-02-15T15:46:41;52.80;;;27.70;;
1759;SDS011;877;46.266;20.062;2023-02-15T15:49:20;51.75;;;29.15;;
1759;SDS011;877;46.266;20.062;2023-02-15T15:51:49;51.07;;;27.57;;
1759;SDS011;877;46.266;20.062;2023-02-15T15:59:43;41.60;;;25.27;;
1759;SDS011;877;46.266;20.062;2023-02-15T16:02:16;40.65;;;24.75;;
1759;SDS011;877;46.266;20.062;2023-02-15T16:04:50;41.45;;;23.45;;
1759;SDS011;877;46.266;20.062;2023-02-15T16:07:26;40.28;;;23.27;;
1759;SDS011;877;46.266;20.062;2023-02-15T16:10:01;62.40;;;34.10;;
1759;SDS011;877;46.266;20.062;2023-02-15T16:12:35;82.67;;;43.20;;
1759;SDS011;877;46.266;20.062;2023-02-15T16:18:01;146.20;;;72.45;;
1759;SDS011;877;46.266;20.062;2023-02-15T16:20:32;94.85;;;55.63;;
1759;SDS011;877;46.266;20.062;2023-02-15T16:25:41;86.68;;;49.00;;
1759;SDS011;877;46.266;20.062;2023-02-15T16:28:18;73.47;;;45.53;;
1759;SDS011;877;46.266;20.062;2023-02-15T16:33:38;76.40;;;47.63;;
1759;SDS011;877;46.266;20.062;2023-02-15T16:36:05;75.57;;;48.67;;
1759;SDS011;877;46.266;20.062;2023-02-15T16:43:43;109.88;;;62.08;;
1759;SDS011;877;46.266;20.062;2023-02-15T16:46:29;198.90;;;110.82;;
1759;SDS011;877;46.266;20.062;2023-02-15T16:51:42;96.70;;;62.13;;
1759;SDS011;877;46.266;20.062;2023-02-15T16:54:14;97.60;;;67.28;;
1759;SDS011;877;46.266;20.062;2023-02-15T16:56:48;98.97;;;66.97;;
1759;SDS011;877;46.266;20.062;2023-02-15T17:02:03;72.07;;;45.15;;
1759;SDS011;877;46.266;20.062;2023-02-15T17:04:32;72.70;;;43.08;;
1759;SDS011;877;46.266;20.062;2023-02-15T17:09:54;62.00;;;40.00;;
1759;SDS011;877;46.266;20.062;2023-02-15T17:17:56;94.57;;;61.05;;
1759;SDS011;877;46.266;20.062;2023-02-15T17:20:24;99.53;;;62.20;;
1759;SDS011;877;46.266;20.062;2023-02-15T17:22:53;91.20;;;50.03;;
1759;SDS011;877;46.266;20.062;2023-02-15T17:27:53;84.30;;;48.92;;
1759;SDS011;877;46.266;20.062;2023-02-15T17:30:24;84.82;;;51.53;;
1759;SDS011;877;46.266;20.062;2023-02-15T17:32:56;92.50;;;52.30;;
1759;SDS011;877;46.266;20.062;2023-02-15T17:35:25;92.25;;;56.28;;
1759;SDS011;877;46.266;20.062;2023-02-15T17:38:39;97.63;;;58.17;;
1759;SDS011;877;46.266;20.062;2023-02-15T17:40:44;100.13;;;54.45;;
1759;SDS011;877;46.266;20.062;2023-02-15T17:45:41;80.97;;;49.72;;
1759;SDS011;877;46.266;20.062;2023-02-15T17:51:04;72.47;;;43.03;;
1759;SDS011;877;46.266;20.062;2023-02-15T17:53:38;68.53;;;43.65;;
1759;SDS011;877;46.266;20.062;2023-02-15T17:56:04;65.65;;;40.05;;
1759;SDS011;877;46.266;20.062;2023-02-15T17:58:39;63.75;;;38.03;;
1759;SDS011;877;46.266;20.062;2023-02-15T18:01:11;59.42;;;36.95;;
1759;SDS011;877;46.266;20.062;2023-02-15T18:03:58;64.40;;;37.67;;
1759;SDS011;877;46.266;20.062;2023-02-15T18:06:43;58.50;;;37.72;;
1759;SDS011;877;46.266;20.062;2023-02-15T18:12:23;60.25;;;35.55;;
1759;SDS011;877;46.266;20.062;2023-02-15T18:14:56;63.38;;;35.30;;
1759;SDS011;877;46.266;20.062;2023-02-15T18:17:32;52.83;;;33.25;;
1759;SDS011;877;46.266;20.062;2023-02-15T18:23:00;54.60;;;32.83;;
1759;SDS011;877;46.266;20.062;2023-02-15T18:25:28;66.85;;;43.45;;
1759;SDS011;877;46.266;20.062;2023-02-15T18:33:01;75.43;;;45.10;;
1759;SDS011;877;46.266;20.062;2023-02-15T18:35:30;64.75;;;40.63;;
1759;SDS011;877;46.266;20.062;2023-02-15T18:37:57;73.00;;;42.78;;
1759;SDS011;877;46.266;20.062;2023-02-15T18:40:24;71.10;;;43.25;;
1759;SDS011;877;46.266;20.062;2023-02-15T18:42:51;68.55;;;43.55;;
1759;SDS011;877;46.266;20.062;2023-02-15T18:45:22;63.75;;;40.30;;
1759;SDS011;877;46.266;20.062;2023-02-15T18:48:00;66.93;;;39.97;;
1759;SDS011;877;46.266;20.062;2023-02-15T18:50:30;106.50;;;63.72;;
1759;SDS011;877;46.266;20.062;2023-02-15T18:52:58;104.13;;;58.50;;
1759;SDS011;877;46.266;20.062;2023-02-15T18:55:25;85.32;;;46.72;;
1759;SDS011;877;46.266;20.062;2023-02-15T18:57:54;86.38;;;51.25;;
1759;SDS011;877;46.266;20.062;2023-02-15T19:00:36;92.47;;;55.10;;
1759;SDS011;877;46.266;20.062;2023-02-15T19:03:03;100.20;;;56.60;;
1759;SDS011;877;46.266;20.062;2023-02-15T19:05:37;94.68;;;54.53;;
1759;SDS011;877;46.266;20.062;2023-02-15T19:08:03;93.22;;;54.08;;
1759;SDS011;877;46.266;20.062;2023-02-15T19:10:30;89.97;;;54.20;;
1759;SDS011;877;46.266;20.062;2023-02-15T19:12:57;117.88;;;64.15;;
1759;SDS011;877;46.266;20.062;2023-02-15T19:15:25;105.13;;;61.80;;
1759;SDS011;877;46.266;20.062;2023-02-15T19:17:53;126.95;;;63.47;;
1759;SDS011;877;46.266;20.062;2023-02-15T19:20:34;107.45;;;60.05;;
1759;SDS011;877;46.266;20.062;2023-02-15T19:28:32;118.10;;;62.83;;
1759;SDS011;877;46.266;20.062;2023-02-15T19:30:59;119.53;;;63.55;;
1759;SDS011;877;46.266;20.062;2023-02-15T19:33:25;111.65;;;61.90;;
1759;SDS011;877;46.266;20.062;2023-02-15T19:35:52;104.90;;;59.58;;
1759;SDS011;877;46.266;20.062;2023-02-15T19:38:22;112.85;;;59.85;;
1759;SDS011;877;46.266;20.062;2023-02-15T19:40:59;106.70;;;54.38;;
1759;SDS011;877;46.266;20.062;2023-02-15T19:43:28;102.55;;;61.88;;